Calgary, Canada
Current Conditions -  °F | °C
As of 12:35 PM on Thursday 23 Oct 2014 (Local Time) from CYYC Reporting Station
Few Clouds Few Clouds  
Wind Chill: 63°   Ceiling: Unl
Heat Index: 63°   Visibility: 40mi
Dew Point: 27°   Wind: 16mph
Humidity: 26%   Direction: 310°NW
Pressure: 29.54"   Gusts: 22mph
Location:  51.05°N, 114.06°W
Report Text: CYYC 231835Z 31014G19KT 40SM FEW055 FEW150 17/M03 A2954 RMK CU1AC1 CU TR WSHFT 1822 SLP015 DENSITY ALT 5000FT
Loading
Personal Weather Stations






























Interactive Weather Map
Tropical Storm Tracking
New forecast layout! Learn more

10-Day Weather Forecast

Advertisements
Track Severe Weather on mobile